Time;durP1;ratioP1;P1;durP2;ratioP2;P2;SDS_P1;SDS_P2;PMS_P1;PMS_P2;Temp;Humidity;BMP_temperature;BMP_pressure;BME280_temperature;BME280_humidity;BME280_pressure;Samples;Min_cycle;Max_cycle;Signal;HPM_P1;HPM_P2
2022/12/11 00:01:53;;;;;;;9.73;7.88;;;13.10;52.20;;;;;;5052700;28;20183;-67
2022/12/11 00:04:19;;;;;;;10.48;7.93;;;13.20;52.30;;;;;;5053631;28;20206;-69
2022/12/11 00:06:44;;;;;;;11.30;8.20;;;13.20;52.30;;;;;;5053512;28;20202;-68
2022/12/11 00:09:10;;;;;;;9.70;7.50;;;13.20;52.30;;;;;;5052885;28;20179;-69
2022/12/11 00:11:35;;;;;;;11.85;7.45;;;13.40;52.20;;;;;;5053179;28;20280;-68
2022/12/11 00:14:01;;;;;;;9.15;7.38;;;13.30;52.10;;;;;;5053453;28;20663;-68
2022/12/11 00:16:27;;;;;;;8.82;7.75;;;13.30;52.20;;;;;;5052727;28;20693;-67
2022/12/11 00:18:53;;;;;;;12.10;8.75;;;13.30;52.20;;;;;;5053142;28;20576;-67
2022/12/11 00:21:18;;;;;;;11.50;8.88;;;13.20;52.10;;;;;;5052882;28;20233;-67
2022/12/11 00:23:44;;;;;;;11.70;8.13;;;13.20;52.30;;;;;;5053178;28;20579;-69
2022/12/11 00:26:12;;;;;;;12.70;8.55;;;13.20;52.40;;;;;;5053453;28;20175;-68
2022/12/11 00:28:37;;;;;;;11.50;8.13;;;13.10;52.20;;;;;;5051204;28;20207;-69
2022/12/11 00:31:07;;;;;;;11.43;7.95;;;13.10;52.30;;;;;;5053191;28;20206;-68
2022/12/11 00:33:33;;;;;;;12.57;8.43;;;13.10;52.30;;;;;;5052837;28;20179;-68
2022/12/11 00:35:58;;;;;;;12.90;8.90;;;13.20;52.40;;;;;;5052295;28;20225;-68
2022/12/11 00:38:24;;;;;;;13.10;8.75;;;13.20;52.30;;;;;;5053107;28;20179;-69
2022/12/11 00:40:49;;;;;;;11.02;7.65;;;13.30;52.30;;;;;;5052987;28;20182;-69
2022/12/11 00:43:15;;;;;;;10.43;7.57;;;13.30;52.30;;;;;;5052409;28;20178;-69
2022/12/11 00:45:44;;;;;;;11.85;8.27;;;13.30;52.20;;;;;;5052758;28;20634;-69
2022/12/11 00:48:11;;;;;;;12.23;8.80;;;13.40;52.10;;;;;;5053021;28;20167;-70
2022/12/11 00:50:37;;;;;;;9.80;7.53;;;13.30;52.10;;;;;;5051869;28;20187;-69
2022/12/11 00:53:03;;;;;;;13.75;8.68;;;13.30;52.10;;;;;;5053010;28;20175;-69
2022/12/11 00:55:29;;;;;;;12.07;8.02;;;13.30;52.20;;;;;;5052726;28;20666;-69
2022/12/11 00:57:54;;;;;;;14.25;9.60;;;13.20;52.30;;;;;;5051898;28;20216;-68
2022/12/11 01:00:21;;;;;;;12.48;9.40;;;13.20;52.30;;;;;;5052789;28;20638;-69
2022/12/11 01:02:47;;;;;;;14.13;9.45;;;13.10;52.30;;;;;;5052420;28;20186;-68
2022/12/11 01:05:13;;;;;;;13.65;9.13;;;13.10;52.30;;;;;;5052281;28;20175;-69
2022/12/11 01:07:38;;;;;;;12.32;8.65;;;13.20;52.40;;;;;;5052740;28;20171;-69
2022/12/11 01:10:22;;;;;;;12.80;8.95;;;13.20;52.40;;;;;;5052804;28;20182;-69
2022/12/11 01:13:08;;;;;;;12.15;9.15;;;13.20;52.30;;;;;;5052234;28;20574;-68
2022/12/11 01:15:39;;;;;;;11.77;8.88;;;13.30;52.30;;;;;;5052120;28;20230;-68
2022/12/11 01:18:04;;;;;;;10.85;8.52;;;13.40;52.20;;;;;;5052114;28;20541;-68
2022/12/11 01:20:30;;;;;;;13.57;8.55;;;13.40;52.10;;;;;;5052732;28;20174;-68
2022/12/11 01:22:57;;;;;;;13.95;8.95;;;13.40;52.10;;;;;;5052683;28;20657;-69
2022/12/11 01:25:22;;;;;;;12.30;8.60;;;13.40;52.10;;;;;;5051749;28;20520;-69
2022/12/11 01:27:51;;;;;;;13.48;9.35;;;13.30;52.80;;;;;;5054594;28;20656;-69
2022/12/11 01:30:17;;;;;;;13.18;9.77;;;13.30;52.20;;;;;;5056842;28;20179;-69
2022/12/11 01:32:43;;;;;;;14.35;8.88;;;13.20;52.20;;;;;;5055431;28;20282;-68
2022/12/11 01:35:09;;;;;;;14.73;9.55;;;13.20;52.40;;;;;;5056514;28;20211;-68
2022/12/11 01:37:34;;;;;;;12.48;8.70;;;13.20;52.40;;;;;;5056225;28;20280;-69
2022/12/11 01:40:00;;;;;;;10.93;8.43;;;13.20;52.40;;;;;;5055555;28;20642;-68
2022/12/11 01:42:28;;;;;;;12.02;8.13;;;13.20;52.40;;;;;;5056558;28;20199;-69
2022/12/11 01:45:22;;;;;;;14.38;9.27;;;13.30;52.40;;;;;;5056128;28;20266;-69
2022/12/11 01:47:48;;;;;;;11.80;8.93;;;13.30;52.30;;;;;;5055296;28;20530;-69
2022/12/11 01:50:14;;;;;;;14.60;9.43;;;13.40;52.30;;;;;;5056312;28;20175;-70
2022/12/11 01:52:40;;;;;;;12.70;9.38;;;13.40;52.20;;;;;;5054024;28;20535;-69
2022/12/11 01:55:07;;;;;;;11.13;8.63;;;13.40;52.20;;;;;;5055111;28;20207;-69
2022/12/11 01:57:33;;;;;;;13.40;9.13;;;13.40;52.20;;;;;;5056028;28;20171;-69
2022/12/11 01:59:58;;;;;;;12.73;8.85;;;13.30;52.20;;;;;;5054284;28;20308;-69
2022/12/11 02:02:29;;;;;;;12.10;8.90;;;13.30;52.30;;;;;;5055943;28;20605;-69
2022/12/11 02:04:54;;;;;;;15.27;10.00;;;13.20;52.30;;;;;;5055821;28;20189;-68
2022/12/11 02:07:20;;;;;;;12.98;8.85;;;13.20;52.40;;;;;;5055144;28;20260;-69
2022/12/11 02:09:45;;;;;;;11.45;8.85;;;13.20;52.40;;;;;;5054288;28;20266;-69
2022/12/11 02:12:30;;;;;;;13.65;9.23;;;13.20;52.50;;;;;;5054479;28;20230;-68
2022/12/11 02:15:18;;;;;;;11.38;7.97;;;13.20;52.40;;;;;;5054914;28;20211;-68
2022/12/11 02:18:05;;;;;;;11.27;8.77;;;13.30;52.40;;;;;;5055366;28;20178;-67
2022/12/11 02:21:22;;;;;;;13.70;9.90;;;13.30;52.40;;;;;;5054669;28;20179;-68
2022/12/11 02:24:09;;;;;;;13.38;8.90;;;13.40;52.30;;;;;;5049788;28;20175;-69
2022/12/11 02:27:13;;;;;;;12.70;8.60;;;13.40;52.20;;;;;;5054391;28;20179;-69
2022/12/11 02:29:51;;;;;;;13.82;9.32;;;13.40;52.20;;;;;;5054463;28;20179;-69
2022/12/11 02:32:43;;;;;;;13.38;9.93;;;13.30;52.30;;;;;;5054381;28;20190;-68
2022/12/11 02:35:22;;;;;;;14.00;9.50;;;13.20;52.30;;;;;;5053797;28;20198;-68
2022/12/11 02:37:50;;;;;;;13.73;9.63;;;13.20;52.40;;;;;;5053777;28;20206;-68
2022/12/11 02:40:17;;;;;;;12.98;9.30;;;13.20;52.40;;;;;;5054352;28;20179;-68
2022/12/11 02:42:44;;;;;;;12.98;8.55;;;13.20;52.50;;;;;;5054388;28;20205;-69
2022/12/11 02:45:10;;;;;;;13.55;9.57;;;13.20;52.50;;;;;;5054175;28;20202;-69
2022/12/11 02:47:36;;;;;;;11.05;8.40;;;13.20;52.50;;;;;;5053785;28;20642;-70
2022/12/11 02:50:01;;;;;;;12.05;9.20;;;13.30;52.40;;;;;;5053296;28;20183;-69
2022/12/11 02:52:27;;;;;;;11.55;8.43;;;13.30;52.40;;;;;;5053969;28;20700;-69
2022/12/11 02:54:53;;;;;;;11.40;8.55;;;13.30;52.30;;;;;;5053672;28;20255;-69
2022/12/11 02:57:48;;;;;;;11.55;8.82;;;13.40;52.30;;;;;;5054303;28;20187;-69
2022/12/11 03:00:15;;;;;;;14.68;9.18;;;13.30;52.20;;;;;;5049796;28;20236;-69
2022/12/11 03:02:41;;;;;;;12.30;8.45;;;13.30;52.30;;;;;;5054595;28;20186;-69
2022/12/11 03:05:07;;;;;;;13.55;9.45;;;13.20;52.30;;;;;;5053052;28;20187;-69
2022/12/11 03:07:33;;;;;;;14.18;9.88;;;13.20;52.40;;;;;;5054471;28;20224;-70
2022/12/11 03:09:59;;;;;;;12.68;8.90;;;13.20;52.50;;;;;;5054248;28;20313;-69
2022/12/11 03:12:36;;;;;;;14.32;9.68;;;13.20;52.50;;;;;;5054588;28;20305;-69
2022/12/11 03:15:05;;;;;;;12.35;9.07;;;13.20;52.60;;;;;;5054726;28;20212;-68
2022/12/11 03:17:43;;;;;;;12.82;9.02;;;13.20;52.60;;;;;;5052736;28;20171;-68
2022/12/11 03:20:32;;;;;;;14.30;9.32;;;13.20;52.50;;;;;;5053328;28;20717;-69
2022/12/11 03:23:27;;;;;;;13.43;9.45;;;13.20;52.40;;;;;;5053502;28;20626;-68
2022/12/11 03:26:03;;;;;;;12.32;8.80;;;13.30;52.40;;;;;;5052235;28;20669;-69
2022/12/11 03:28:57;;;;;;;11.73;8.85;;;13.30;52.40;;;;;;5053482;28;20201;-70
2022/12/11 03:31:25;;;;;;;12.80;9.32;;;13.30;52.40;;;;;;5053547;28;20199;-69
2022/12/11 03:33:52;;;;;;;12.45;9.57;;;13.30;52.40;;;;;;5052942;28;20179;-67
2022/12/11 03:36:21;;;;;;;13.45;9.43;;;13.30;52.40;;;;;;5053202;28;20207;-68
2022/12/11 03:38:50;;;;;;;12.77;9.07;;;13.20;52.50;;;;;;5051943;28;20182;-68
2022/12/11 03:41:17;;;;;;;13.32;9.82;;;13.20;52.50;;;;;;5053126;28;20258;-69
2022/12/11 03:43:42;;;;;;;12.07;9.50;;;13.10;52.50;;;;;;5052878;28;20202;-69
2022/12/11 03:46:08;;;;;;;13.73;9.40;;;13.10;52.60;;;;;;5052319;28;20171;-69
2022/12/11 03:48:35;;;;;;;12.73;9.68;;;13.20;52.70;;;;;;5053992;28;20175;-70
2022/12/11 03:51:01;;;;;;;12.38;9.07;;;13.20;52.60;;;;;;5052157;28;20214;-69
2022/12/11 03:53:27;;;;;;;16.77;10.60;;;13.20;52.60;;;;;;5051957;28;20650;-69
2022/12/11 03:55:52;;;;;;;12.90;8.82;;;13.30;52.50;;;;;;5053454;28;20219;-68
2022/12/11 03:58:18;;;;;;;14.10;10.15;;;13.30;52.50;;;;;;5052831;28;20258;-69
2022/12/11 04:00:43;;;;;;;13.13;9.65;;;13.30;52.40;;;;;;5052988;28;20181;-68
2022/12/11 04:03:12;;;;;;;12.70;8.88;;;13.30;52.50;;;;;;5053801;28;20171;-69
2022/12/11 04:05:38;;;;;;;14.90;9.18;;;13.30;52.40;;;;;;5053611;28;20233;-68
2022/12/11 04:08:03;;;;;;;13.65;9.73;;;13.30;52.50;;;;;;5052792;28;20645;-69
2022/12/11 04:10:29;;;;;;;12.60;9.90;;;13.20;52.60;;;;;;5053961;28;20197;-68
2022/12/11 04:12:54;;;;;;;12.52;9.20;;;13.20;52.60;;;;;;5053088;28;20774;-68
2022/12/11 04:15:20;;;;;;;13.85;9.50;;;13.10;52.60;;;;;;5052853;28;20725;-68
2022/12/11 04:26:06;;;;;;;13.77;9.65;;;13.20;52.60;;;;;;5053437;28;20209;-69
2022/12/11 04:28:32;;;;;;;11.35;8.70;;;13.30;52.60;;;;;;5052348;28;20661;-69
2022/12/11 04:30:58;;;;;;;11.93;9.02;;;13.30;52.50;;;;;;5053237;28;20211;-68
2022/12/11 04:33:23;;;;;;;12.35;8.90;;;13.30;52.50;;;;;;5053362;28;20170;-68
2022/12/11 04:35:49;;;;;;;15.43;10.35;;;13.30;52.50;;;;;;5051969;28;20293;-68
2022/12/11 04:38:14;;;;;;;14.00;9.88;;;13.30;52.50;;;;;;5053287;28;20179;-68
2022/12/11 04:40:40;;;;;;;13.48;10.07;;;13.30;52.60;;;;;;5052888;28;20175;-68
2022/12/11 04:43:05;;;;;;;13.05;9.85;;;13.20;52.60;;;;;;5052531;28;20181;-69
2022/12/11 04:45:31;;;;;;;13.27;10.30;;;13.20;52.70;;;;;;5052653;28;20174;-70
2022/12/11 04:47:56;;;;;;;12.93;9.32;;;13.20;52.70;;;;;;5052942;28;20220;-69
2022/12/11 04:50:22;;;;;;;12.30;9.50;;;13.10;52.70;;;;;;5052284;28;20304;-70
2022/12/11 04:52:47;;;;;;;13.60;10.23;;;13.20;52.70;;;;;;5052802;28;20266;-69
2022/12/11 04:55:13;;;;;;;13.23;9.30;;;13.20;52.70;;;;;;5052903;28;20668;-69
2022/12/11 04:57:38;;;;;;;13.23;9.55;;;13.30;52.70;;;;;;5052086;28;20179;-69
2022/12/11 05:00:05;;;;;;;12.68;9.18;;;13.30;52.60;;;;;;5052886;28;20312;-68
2022/12/11 05:02:34;;;;;;;13.20;9.45;;;13.30;52.50;;;;;;5051647;28;20259;-70
2022/12/11 05:05:00;;;;;;;12.63;9.20;;;13.30;52.50;;;;;;5052730;28;20179;-68
2022/12/11 05:07:26;;;;;;;12.55;9.40;;;13.30;52.50;;;;;;5052889;28;20261;-69
2022/12/11 05:09:51;;;;;;;14.05;9.82;;;13.30;52.50;;;;;;5051925;28;20190;-69
2022/12/11 05:12:17;;;;;;;15.38;10.13;;;13.30;52.60;;;;;;5052536;28;20580;-68
2022/12/11 05:14:43;;;;;;;14.13;10.32;;;13.20;52.70;;;;;;5052375;28;20646;-68
2022/12/11 05:17:08;;;;;;;13.15;9.38;;;13.10;52.60;;;;;;5052275;28;20198;-68
2022/12/11 05:19:34;;;;;;;12.93;9.13;;;13.20;52.80;;;;;;5052634;28;20167;-69
2022/12/11 05:22:00;;;;;;;13.95;9.30;;;13.20;52.80;;;;;;5052721;28;20181;-69
2022/12/11 05:24:25;;;;;;;11.98;9.02;;;13.20;52.80;;;;;;5051931;28;20171;-69
2022/12/11 05:26:51;;;;;;;12.13;9.70;;;13.20;52.80;;;;;;5052410;28;20190;-69
2022/12/11 05:29:16;;;;;;;12.63;9.23;;;13.30;52.70;;;;;;5052669;28;20638;-69
2022/12/11 05:31:42;;;;;;;14.60;9.68;;;13.30;52.60;;;;;;5051466;28;20171;-67
2022/12/11 05:34:07;;;;;;;12.85;9.45;;;13.40;52.60;;;;;;5052908;28;20301;-68
2022/12/11 05:36:33;;;;;;;13.48;9.20;;;13.30;52.50;;;;;;5052233;28;20302;-68
2022/12/11 05:38:58;;;;;;;13.32;9.57;;;13.30;52.60;;;;;;5051880;28;20513;-69
2022/12/11 05:41:25;;;;;;;13.20;10.00;;;13.30;52.60;;;;;;5052455;28;20175;-68
2022/12/11 05:43:51;;;;;;;15.68;10.48;;;13.20;52.60;;;;;;5052099;28;20731;-69
2022/12/11 05:46:27;;;;;;;13.88;9.60;;;13.20;52.70;;;;;;5051630;28;20218;-69
2022/12/11 05:48:55;;;;;;;12.60;9.75;;;13.10;52.70;;;;;;5052095;28;20626;-69
2022/12/11 05:51:20;;;;;;;14.05;10.10;;;13.10;52.80;;;;;;5052367;28;20258;-69
2022/12/11 05:53:47;;;;;;;13.32;10.13;;;13.20;52.90;;;;;;5051274;28;20657;-69
2022/12/11 05:56:15;;;;;;;12.10;9.20;;;13.20;53.50;;;;;;5052222;28;20580;-69
2022/12/11 05:58:41;;;;;;;14.77;9.63;;;13.20;52.90;;;;;;5051874;28;20246;-69
2022/12/11 06:01:08;;;;;;;13.13;9.00;;;13.30;52.70;;;;;;5052258;28;20278;-68
2022/12/11 06:03:34;;;;;;;11.52;8.52;;;13.30;52.70;;;;;;5052157;28;20179;-69
2022/12/11 06:06:03;;;;;;;12.80;9.18;;;13.40;52.60;;;;;;5051784;28;20185;-68
2022/12/11 06:08:28;;;;;;;12.98;8.93;;;13.40;52.50;;;;;;5052339;28;20214;-69
2022/12/11 06:10:54;;;;;;;13.70;10.35;;;13.40;52.50;;;;;;5051875;28;20207;-67
2022/12/11 06:13:20;;;;;;;13.57;9.27;;;13.30;52.50;;;;;;5052894;28;20179;-68
2022/12/11 06:15:45;;;;;;;14.20;10.57;;;13.30;52.60;;;;;;5055547;28;20252;-68
2022/12/11 06:18:11;;;;;;;13.30;10.10;;;13.20;52.60;;;;;;5055958;28;20167;-68
2022/12/11 06:20:36;;;;;;;13.73;9.70;;;13.20;52.80;;;;;;5054800;28;20217;-68
2022/12/11 06:23:02;;;;;;;13.88;9.73;;;13.20;52.80;;;;;;5055747;28;20661;-69
2022/12/11 06:25:27;;;;;;;13.73;10.07;;;13.20;52.90;;;;;;5055498;28;20179;-69
2022/12/11 06:27:53;;;;;;;11.73;9.52;;;13.20;52.80;;;;;;5054777;28;20172;-70
2022/12/11 06:30:19;;;;;;;11.95;9.48;;;13.20;52.80;;;;;;5055695;28;20205;-69
2022/12/11 06:32:44;;;;;;;10.55;8.60;;;13.30;52.80;;;;;;5055319;28;20575;-68
2022/12/11 06:35:10;;;;;;;10.88;8.85;;;13.30;52.70;;;;;;5054722;28;20631;-68
2022/12/11 06:37:36;;;;;;;10.27;8.70;;;13.30;52.60;;;;;;5055281;28;20563;-68
2022/12/11 06:40:05;;;;;;;11.88;9.10;;;13.40;52.60;;;;;;5055167;28;20183;-68
2022/12/11 06:42:30;;;;;;;11.60;8.55;;;13.40;52.60;;;;;;5054231;28;20206;-69
2022/12/11 06:44:58;;;;;;;12.10;8.73;;;13.30;52.50;;;;;;5055313;28;20207;-68
2022/12/11 06:47:27;;;;;;;11.77;9.02;;;13.30;52.60;;;;;;5055298;28;20183;-69
2022/12/11 06:49:53;;;;;;;11.88;9.02;;;13.20;52.70;;;;;;5054010;28;20175;-68
2022/12/11 06:52:19;;;;;;;11.60;9.40;;;13.20;52.70;;;;;;5055114;28;20182;-69
2022/12/11 06:54:45;;;;;;;10.40;8.75;;;13.20;52.80;;;;;;5054729;28;20260;-69
2022/12/11 06:57:10;;;;;;;10.40;8.40;;;13.20;52.90;;;;;;5054449;28;20248;-69
2022/12/11 06:59:36;;;;;;;9.95;8.95;;;13.20;52.80;;;;;;5054841;28;20194;-69
2022/12/11 07:02:01;;;;;;;11.80;9.30;;;13.20;52.80;;;;;;5054438;28;20178;-69
2022/12/11 07:04:29;;;;;;;11.15;9.00;;;13.20;52.70;;;;;;5054882;28;20707;-69
2022/12/11 07:06:54;;;;;;;10.48;8.80;;;13.30;52.70;;;;;;5054573;28;20254;-68
2022/12/11 07:09:21;;;;;;;11.05;8.27;;;13.30;52.60;;;;;;5054123;28;20278;-70
2022/12/11 07:11:49;;;;;;;10.45;8.40;;;13.40;52.60;;;;;;5054217;28;20725;-68
2022/12/11 07:14:15;;;;;;;11.52;8.90;;;13.30;52.50;;;;;;5054823;28;20191;-68
2022/12/11 07:16:40;;;;;;;10.65;8.32;;;13.30;52.50;;;;;;5053538;28;20590;-68
2022/12/11 07:19:06;;;;;;;11.85;8.85;;;13.30;52.60;;;;;;5054657;28;20681;-68
2022/12/11 07:21:31;;;;;;;12.70;9.65;;;13.30;52.60;;;;;;5054267;28;20269;-68
2022/12/11 07:23:57;;;;;;;9.98;8.45;;;13.20;52.70;;;;;;5053417;28;20213;-69
2022/12/11 07:26:23;;;;;;;11.18;8.80;;;13.20;52.70;;;;;;5053961;28;20179;-69
2022/12/11 07:28:49;;;;;;;10.65;8.73;;;13.20;52.70;;;;;;5054205;28;20183;-69
2022/12/11 07:31:17;;;;;;;8.82;7.53;;;13.20;52.80;;;;;;5053745;28;20201;-69
2022/12/11 07:33:42;;;;;;;9.60;7.47;;;13.20;52.80;;;;;;5054017;28;20580;-68
2022/12/11 07:36:09;;;;;;;10.10;7.88;;;13.30;52.70;;;;;;5054203;28;20203;-68
2022/12/11 07:38:35;;;;;;;8.70;7.45;;;13.30;52.70;;;;;;5053136;28;20549;-69
2022/12/11 07:41:01;;;;;;;10.77;8.05;;;13.30;52.60;;;;;;5054112;28;20186;-69
2022/12/11 07:43:27;;;;;;;9.55;7.00;;;13.40;52.60;;;;;;5054142;28;20187;-69
2022/12/11 07:45:52;;;;;;;9.55;7.90;;;13.40;52.50;;;;;;5052974;28;20175;-69
2022/12/11 07:48:18;;;;;;;9.13;7.97;;;13.30;52.50;;;;;;5054035;28;20197;-70
2022/12/11 07:50:43;;;;;;;7.72;6.93;;;13.30;52.50;;;;;;5053833;28;20179;-69
2022/12/11 07:53:09;;;;;;;8.88;7.88;;;13.30;52.60;;;;;;5053085;28;20267;-70
2022/12/11 07:55:35;;;;;;;9.45;8.23;;;13.20;52.60;;;;;;5053728;28;20210;-70
2022/12/11 07:58:00;;;;;;;9.40;8.10;;;13.20;52.70;;;;;;5053951;28;20189;-69
2022/12/11 08:00:26;;;;;;;8.85;7.22;;;13.20;52.70;;;;;;5053163;28;20179;-70
2022/12/11 08:02:52;;;;;;;8.23;7.40;;;13.20;52.80;;;;;;5053400;28;20179;-68
2022/12/11 08:05:17;;;;;;;7.53;6.10;;;13.20;52.70;;;;;;5053297;28;20237;-69
2022/12/11 08:07:43;;;;;;;8.25;7.32;;;13.20;52.70;;;;;;5053143;28;20182;-69
2022/12/11 08:10:08;;;;;;;7.10;6.40;;;13.30;52.70;;;;;;5053423;28;20175;-69
2022/12/11 08:12:34;;;;;;;8.27;7.47;;;13.30;52.60;;;;;;5052477;28;20246;-69
2022/12/11 08:14:59;;;;;;;8.00;7.18;;;13.40;52.60;;;;;;5053858;28;20190;-69
2022/12/11 08:17:26;;;;;;;7.85;7.07;;;13.40;52.50;;;;;;5053577;28;20174;-69
2022/12/11 08:19:51;;;;;;;9.23;8.13;;;13.30;52.50;;;;;;5051360;28;20301;-68
2022/12/11 08:22:17;;;;;;;7.05;6.35;;;13.30;52.50;;;;;;5053935;28;20634;-69
2022/12/11 08:24:43;;;;;;;8.10;7.28;;;13.30;52.50;;;;;;5053356;28;20171;-70
2022/12/11 08:27:08;;;;;;;7.22;6.43;;;13.20;52.60;;;;;;5052544;28;20704;-70
2022/12/11 08:29:34;;;;;;;9.35;7.82;;;13.20;52.70;;;;;;5052885;28;20176;-70
2022/12/11 08:31:59;;;;;;;7.72;6.80;;;13.20;52.70;;;;;;5053223;28;20176;-69
2022/12/11 08:34:25;;;;;;;7.43;6.72;;;13.20;52.70;;;;;;5052460;28;20220;-69
2022/12/11 08:36:50;;;;;;;8.05;6.82;;;13.20;52.70;;;;;;5052511;28;20211;-68
2022/12/11 08:39:16;;;;;;;7.03;6.00;;;13.20;52.70;;;;;;5053341;28;20304;-69
2022/12/11 08:41:41;;;;;;;8.50;6.68;;;13.30;52.60;;;;;;5052335;28;20258;-69
2022/12/11 08:44:10;;;;;;;6.68;6.07;;;13.30;52.50;;;;;;5053095;28;20656;-69
2022/12/11 08:46:36;;;;;;;6.90;6.18;;;13.40;52.50;;;;;;5052783;28;20237;-70
2022/12/11 08:49:01;;;;;;;7.20;6.50;;;13.40;52.50;;;;;;5052244;28;20167;-70
2022/12/11 08:51:27;;;;;;;6.97;6.13;;;13.30;52.40;;;;;;5052952;28;20624;-69
2022/12/11 08:53:57;;;;;;;6.80;6.07;;;13.30;52.40;;;;;;5052536;28;20514;-70
2022/12/11 08:56:23;;;;;;;5.97;5.38;;;13.30;52.50;;;;;;5052261;28;20214;-69
2022/12/11 08:58:49;;;;;;;6.22;5.63;;;13.30;52.60;;;;;;5052590;28;20258;-69
2022/12/11 09:01:17;;;;;;;6.82;6.13;;;13.20;52.60;;;;;;5053050;28;20232;-70
2022/12/11 09:03:42;;;;;;;7.20;5.93;;;13.20;52.60;;;;;;5051768;28;20252;-69
2022/12/11 09:06:10;;;;;;;6.88;6.28;;;13.20;52.60;;;;;;5052742;28;20634;-69
2022/12/11 09:08:36;;;;;;;6.70;5.78;;;13.20;52.60;;;;;;5052153;28;20534;-70
2022/12/11 09:11:12;;;;;;;8.23;6.53;;;13.20;52.60;;;;;;5052396;28;20223;-68
2022/12/11 09:13:38;;;;;;;6.07;5.47;;;13.30;52.60;;;;;;5052745;28;20274;-68
2022/12/11 09:16:05;;;;;;;7.20;6.28;;;13.30;52.50;;;;;;5052031;28;20697;-68
2022/12/11 09:18:30;;;;;;;6.30;5.72;;;13.40;52.50;;;;;;5052602;28;20179;-69
2022/12/11 09:21:03;;;;;;;6.50;5.55;;;13.40;52.40;;;;;;5053260;28;20328;-68
2022/12/11 09:23:29;;;;;;;6.38;5.13;;;13.40;52.30;;;;;;5051769;28;20533;-70
2022/12/11 09:25:54;;;;;;;6.68;5.80;;;13.30;52.40;;;;;;5052479;28;20171;-70
2022/12/11 09:28:20;;;;;;;6.05;5.45;;;13.30;52.40;;;;;;5052694;28;20666;-70
2022/12/11 09:30:45;;;;;;;7.68;6.47;;;13.20;52.40;;;;;;5051572;28;20206;-69
2022/12/11 09:33:11;;;;;;;6.43;5.82;;;13.20;52.50;;;;;;5052517;28;20198;-68
2022/12/11 09:35:36;;;;;;;6.40;5.65;;;13.20;52.60;;;;;;5052359;28;20580;-68
2022/12/11 09:38:02;;;;;;;5.93;5.32;;;13.20;52.60;;;;;;5051821;28;20661;-70
2022/12/11 09:40:28;;;;;;;6.10;5.50;;;13.20;52.60;;;;;;5052559;28;20174;-69
2022/12/11 09:42:57;;;;;;;6.18;5.18;;;13.20;52.50;;;;;;5051072;28;20179;-69
2022/12/11 09:45:23;;;;;;;5.30;4.80;;;13.30;52.50;;;;;;5051702;28;20237;-70
2022/12/11 09:47:53;;;;;;;6.18;5.10;;;13.30;52.50;;;;;;5052626;28;20171;-70
2022/12/11 09:50:22;;;;;;;5.95;5.45;;;13.40;52.40;;;;;;5056277;28;20668;-70
2022/12/11 09:53:05;;;;;;;5.93;5.32;;;13.40;52.30;;;;;;5054256;28;20244;-69
2022/12/11 09:55:42;;;;;;;5.68;5.03;;;13.40;52.30;;;;;;5056025;28;20210;-69
2022/12/11 09:58:23;;;;;;;6.10;5.47;;;13.30;52.30;;;;;;5055460;28;20185;-69
2022/12/11 10:01:07;;;;;;;6.25;5.40;;;13.30;52.40;;;;;;5056078;28;20190;-69
2022/12/11 10:03:49;;;;;;;6.05;5.20;;;13.30;52.50;;;;;;5054775;28;20620;-69
2022/12/11 10:06:17;;;;;;;5.22;4.72;;;13.20;52.50;;;;;;5055187;28;20657;-69
2022/12/11 10:09:01;;;;;;;5.38;4.90;;;13.20;52.60;;;;;;5055906;28;20198;-69
2022/12/11 10:11:42;;;;;;;5.55;5.05;;;13.20;52.60;;;;;;5055722;28;20795;-68
2022/12/11 10:14:07;;;;;;;5.35;4.85;;;13.20;52.60;;;;;;5055266;28;20171;-68
2022/12/11 10:16:48;;;;;;;5.95;5.35;;;13.30;52.60;;;;;;5055531;28;20206;-68
2022/12/11 10:19:24;;;;;;;5.07;4.57;;;13.30;52.50;;;;;;5054025;28;20221;-68
2022/12/11 10:21:50;;;;;;;5.55;5.05;;;13.40;52.50;;;;;;5054488;28;20171;-68
2022/12/11 10:24:38;;;;;;;5.40;4.90;;;13.40;52.40;;;;;;5055707;28;20175;-70
2022/12/11 10:27:20;;;;;;;5.60;4.78;;;13.40;52.30;;;;;;5054980;28;20285;-69
2022/12/11 10:29:46;;;;;;;5.18;4.68;;;13.30;52.30;;;;;;5055203;28;20649;-70
2022/12/11 10:32:26;;;;;;;5.95;5.22;;;13.30;52.40;;;;;;5054385;28;20179;-69
2022/12/11 10:34:56;;;;;;;6.22;5.63;;;13.30;52.50;;;;;;5054508;28;20190;-68
2022/12/11 10:37:22;;;;;;;5.95;5.35;;;13.20;52.50;;;;;;5054248;28;20269;-69
2022/12/11 10:39:47;;;;;;;5.50;4.70;;;13.20;52.50;;;;;;5054056;28;20314;-69
2022/12/11 10:42:16;;;;;;;4.70;4.30;;;13.20;52.60;;;;;;5054736;28;20258;-69
2022/12/11 10:44:53;;;;;;;5.28;4.78;;;13.20;52.60;;;;;;5054013;28;20181;-69
2022/12/11 10:47:18;;;;;;;4.93;4.43;;;13.30;52.60;;;;;;5053445;28;20501;-70
2022/12/11 10:49:58;;;;;;;4.97;4.35;;;13.30;52.50;;;;;;5055095;28;20170;-70
2022/12/11 10:52:26;;;;;;;4.88;4.40;;;13.30;52.40;;;;;;5055059;28;20188;-69
2022/12/11 10:55:00;;;;;;;4.90;4.38;;;13.40;52.50;;;;;;5054102;28;20707;-68
2022/12/11 10:57:31;;;;;;;6.22;5.63;;;13.30;52.40;;;;;;5055113;28;20220;-69
2022/12/11 10:59:56;;;;;;;4.97;4.47;;;13.30;52.40;;;;;;5054749;28;20692;-68
2022/12/11 11:02:23;;;;;;;5.68;5.07;;;13.30;52.50;;;;;;5053060;28;20183;-69
2022/12/11 11:04:48;;;;;;;5.57;5.00;;;13.20;52.50;;;;;;5054543;28;20270;-68
2022/12/11 11:07:22;;;;;;;5.07;4.57;;;13.20;52.50;;;;;;5055087;28;20262;-70
2022/12/11 11:09:48;;;;;;;5.55;4.80;;;13.20;52.60;;;;;;5053925;28;20175;-69
2022/12/11 11:12:18;;;;;;;4.85;4.35;;;13.20;52.60;;;;;;5054776;28;20551;-69
2022/12/11 11:14:43;;;;;;;5.55;4.95;;;13.20;52.60;;;;;;5054449;28;20543;-68
2022/12/11 11:17:12;;;;;;;5.55;4.45;;;13.30;52.60;;;;;;5053828;28;20207;-69
2022/12/11 11:19:37;;;;;;;4.32;3.92;;;13.30;52.60;;;;;;5053042;28;20175;-69
2022/12/11 11:22:08;;;;;;;5.15;4.65;;;13.30;52.50;;;;;;5053527;28;20225;-68
2022/12/11 11:24:54;;;;;;;4.93;4.53;;;13.40;52.40;;;;;;5052209;28;20175;-70
2022/12/11 11:27:23;;;;;;;4.93;4.43;;;13.30;52.40;;;;;;5054449;28;20634;-70
2022/12/11 11:29:52;;;;;;;4.70;4.30;;;13.30;52.40;;;;;;5053329;28;20557;-69
2022/12/11 11:32:32;;;;;;;5.25;4.75;;;13.30;52.40;;;;;;5053331;28;20262;-69
2022/12/11 11:35:12;;;;;;;5.18;4.68;;;13.20;52.50;;;;;;5053086;28;20175;-69
2022/12/11 11:37:44;;;;;;;5.30;4.80;;;13.20;52.60;;;;;;5053505;28;20183;-68
2022/12/11 11:40:20;;;;;;;4.88;4.38;;;13.20;52.60;;;;;;5054114;28;20183;-69
2022/12/11 11:42:55;;;;;;;5.07;4.53;;;13.20;52.60;;;;;;5053952;28;20533;-69
2022/12/11 11:45:30;;;;;;;4.68;4.28;;;13.20;52.60;;;;;;5052416;28;20179;-70
2022/12/11 11:48:10;;;;;;;4.78;4.38;;;13.20;52.60;;;;;;5054114;28;20653;-69
2022/12/11 11:50:36;;;;;;;4.70;4.20;;;13.30;52.60;;;;;;5052835;28;20548;-69
2022/12/11 11:53:16;;;;;;;4.60;4.20;;;13.30;52.50;;;;;;5053004;28;20634;-69
2022/12/11 11:55:48;;;;;;;4.80;4.40;;;13.30;52.40;;;;;;5053814;28;20198;-69
2022/12/11 11:58:18;;;;;;;4.75;4.35;;;13.40;52.50;;;;;;5052198;28;20237;-68
2022/12/11 12:00:43;;;;;;;5.55;4.47;;;13.30;52.50;;;;;;5053602;28;20688;-68
2022/12/11 12:03:11;;;;;;;5.78;5.13;;;13.30;52.60;;;;;;5053781;28;20734;-69
2022/12/11 12:05:56;;;;;;;5.15;4.65;;;13.20;52.60;;;;;;5053112;28;20171;-68
2022/12/11 12:08:45;;;;;;;4.78;4.38;;;13.10;52.50;;;;;;5053926;28;20175;-69
2022/12/11 12:11:59;;;;;;;5.75;5.15;;;13.20;52.70;;;;;;5051677;28;20237;-68
2022/12/11 12:14:39;;;;;;;5.40;4.60;;;13.20;52.70;;;;;;5048447;28;20183;-68
2022/12/11 12:17:07;;;;;;;4.88;4.40;;;13.20;52.70;;;;;;5053373;28;20568;-68
2022/12/11 12:19:33;;;;;;;5.00;4.50;;;13.20;52.70;;;;;;5052423;28;20593;-69
2022/12/11 12:22:04;;;;;;;5.05;4.57;;;13.30;52.70;;;;;;5053657;28;20214;-68
2022/12/11 12:24:54;;;;;;;4.68;4.20;;;13.30;52.60;;;;;;5052273;28;20638;-69
2022/12/11 12:27:51;;;;;;;4.82;4.38;;;13.30;52.50;;;;;;5052926;28;20262;-70
2022/12/11 12:30:17;;;;;;;5.18;4.65;;;13.30;52.50;;;;;;5048231;28;20186;-68
2022/12/11 12:32:53;;;;;;;4.78;4.38;;;13.30;52.60;;;;;;5052449;28;20175;-68
2022/12/11 12:35:37;;;;;;;5.13;4.63;;;13.20;52.60;;;;;;5052169;28;20241;-68
2022/12/11 12:38:22;;;;;;;4.82;4.32;;;13.20;52.60;;;;;;5053273;28;20179;-68
2022/12/11 12:41:00;;;;;;;5.05;4.57;;;13.20;52.70;;;;;;5050751;28;20190;-69
2022/12/11 12:43:41;;;;;;;4.85;4.25;;;13.20;52.60;;;;;;5052082;28;20182;-69
2022/12/11 12:46:27;;;;;;;5.03;4.50;;;13.20;52.70;;;;;;5053168;28;20178;-69
2022/12/11 12:48:53;;;;;;;4.75;4.35;;;13.20;52.70;;;;;;5050877;28;20174;-69
2022/12/11 12:51:18;;;;;;;4.13;3.72;;;13.30;52.70;;;;;;5053263;28;20660;-69
2022/12/11 12:53:52;;;;;;;4.88;4.40;;;13.30;52.60;;;;;;5052205;28;20178;-69
2022/12/11 12:56:17;;;;;;;4.95;4.43;;;13.30;52.60;;;;;;5051839;28;20214;-69
2022/12/11 12:58:44;;;;;;;5.22;4.72;;;13.30;52.50;;;;;;5051523;28;20190;-68
2022/12/11 13:01:16;;;;;;;5.40;4.90;;;13.30;52.60;;;;;;5052293;28;20175;-69